Time;durP1;ratioP1;P1;durP2;ratioP2;P2;SDS_P1;SDS_P2;PMS_P1;PMS_P2;Temp;Humidity;BMP_temperature;BMP_pressure;BME280_temperature;BME280_humidity;BME280_pressure;Samples;Min_cycle;Max_cycle;Signal;HPM_P1;HPM_P2
2021/03/06 00:00:57;;;;;;;5.97;5.03;;;2.20;68.00;;;;;;5024922;28;20452;-42
2021/03/06 00:03:26;;;;;;;8.53;5.53;;;2.20;68.00;;;;;;5019612;28;20468;-40
2021/03/06 00:05:53;;;;;;;7.97;4.93;;;2.10;68.00;;;;;;5026014;28;20474;-40
2021/03/06 00:08:23;;;;;;;14.70;6.50;;;2.10;68.00;;;;;;5026467;28;20491;-40
2021/03/06 00:10:51;;;;;;;11.23;7.30;;;2.10;68.00;;;;;;5024099;28;20490;-40
2021/03/06 00:13:19;;;;;;;19.53;10.90;;;2.10;68.10;;;;;;5021285;28;20465;-42
2021/03/06 00:15:51;;;;;;;13.23;6.80;;;2.00;68.10;;;;;;5024336;28;20587;-40
2021/03/06 00:18:18;;;;;;;7.50;5.10;;;2.00;68.10;;;;;;5021159;28;20463;-42
2021/03/06 00:20:44;;;;;;;6.67;5.00;;;2.00;67.80;;;;;;5024622;28;20883;-42
2021/03/06 00:23:12;;;;;;;7.27;5.57;;;2.00;67.80;;;;;;5006649;28;20467;-42
2021/03/06 00:25:41;;;;;;;7.90;5.50;;;1.90;67.80;;;;;;5026245;28;20479;-40
2021/03/06 00:28:09;;;;;;;8.20;4.83;;;1.90;68.10;;;;;;5007705;28;20882;-42
2021/03/06 00:30:35;;;;;;;8.10;5.47;;;1.90;68.20;;;;;;5024167;28;20905;-40
2021/03/06 00:33:02;;;;;;;6.13;5.17;;;1.90;68.30;;;;;;5006236;28;20472;-41
2021/03/06 00:35:29;;;;;;;6.70;5.10;;;1.80;68.40;;;;;;5025861;28;20483;-40
2021/03/06 00:37:59;;;;;;;8.33;5.47;;;1.80;68.40;;;;;;5008882;28;20870;-40
2021/03/06 00:40:26;;;;;;;11.20;6.77;;;1.80;68.40;;;;;;5024648;28;20465;-42
2021/03/06 00:42:52;;;;;;;7.63;5.37;;;1.80;68.40;;;;;;5006285;28;20505;-40
2021/03/06 00:45:18;;;;;;;7.00;5.40;;;1.80;68.40;;;;;;5024270;28;20550;-42
2021/03/06 00:47:45;;;;;;;13.50;6.10;;;1.80;68.30;;;;;;5022936;28;20559;-42
2021/03/06 00:50:35;;;;;;;7.67;5.80;;;1.80;68.30;;;;;;5024585;28;20502;-40
2021/03/06 00:53:03;;;;;;;7.70;5.30;;;1.70;68.30;;;;;;5015790;28;20482;-41
2021/03/06 00:55:29;;;;;;;9.70;5.47;;;1.70;68.30;;;;;;5024872;28;20575;-40
2021/03/06 00:57:56;;;;;;;9.90;5.90;;;1.70;68.30;;;;;;5044539;28;20463;-40
2021/03/06 01:00:23;;;;;;;8.73;5.43;;;1.70;68.30;;;;;;5025080;28;20459;-40
2021/03/06 01:02:50;;;;;;;10.30;5.80;;;1.70;68.50;;;;;;5045678;28;20936;-40
2021/03/06 01:05:16;;;;;;;6.60;5.07;;;1.70;68.70;;;;;;5024567;28;20522;-40
2021/03/06 01:07:43;;;;;;;8.70;5.87;;;1.70;68.80;;;;;;5025777;28;21007;-42
2021/03/06 01:10:19;;;;;;;7.97;5.60;;;1.60;68.80;;;;;;5013297;28;20613;-41
2021/03/06 01:12:45;;;;;;;8.50;5.27;;;1.60;68.90;;;;;;5027580;28;20455;-41
2021/03/06 01:15:13;;;;;;;8.70;5.37;;;1.60;69.20;;;;;;5011542;28;20495;-41
2021/03/06 01:17:39;;;;;;;6.80;4.70;;;1.60;69.20;;;;;;4998795;28;20459;-41
2021/03/06 01:20:09;;;;;;;9.73;5.57;;;1.60;69.10;;;;;;5040001;28;20513;-41
2021/03/06 01:22:35;;;;;;;8.40;5.60;;;1.60;69.00;;;;;;5025945;28;21028;-40
2021/03/06 01:25:03;;;;;;;10.63;5.17;;;1.50;69.10;;;;;;5036729;28;20462;-40
2021/03/06 01:27:29;;;;;;;5.50;4.90;;;1.50;69.10;;;;;;5025926;28;20460;-41
2021/03/06 01:29:57;;;;;;;11.30;5.80;;;1.50;69.20;;;;;;5006744;28;20463;-41
2021/03/06 01:32:23;;;;;;;6.50;4.40;;;1.50;69.20;;;;;;5021760;28;20470;-40
2021/03/06 01:34:50;;;;;;;8.80;5.00;;;1.50;69.10;;;;;;5039222;28;20510;-40
2021/03/06 01:37:17;;;;;;;8.37;4.60;;;1.50;69.00;;;;;;5022235;28;20491;-40
2021/03/06 01:39:47;;;;;;;8.33;5.63;;;1.40;68.90;;;;;;5022573;28;20538;-40
2021/03/06 01:42:15;;;;;;;8.43;5.47;;;1.40;68.90;;;;;;5002010;28;20562;-40
2021/03/06 01:44:42;;;;;;;6.77;4.80;;;1.40;68.90;;;;;;5026450;28;20479;-40
2021/03/06 01:47:11;;;;;;;8.07;5.80;;;1.40;69.00;;;;;;5038593;28;20448;-40
2021/03/06 01:49:37;;;;;;;7.77;5.07;;;1.40;68.90;;;;;;5034354;28;20459;-40
2021/03/06 01:52:07;;;;;;;8.07;5.17;;;1.40;69.10;;;;;;5025115;28;20452;-41
2021/03/06 01:54:53;;;;;;;5.53;4.67;;;1.30;69.10;;;;;;5017821;28;20517;-40
2021/03/06 01:57:22;;;;;;;6.73;5.23;;;1.30;69.20;;;;;;5023070;28;20460;-40
2021/03/06 01:59:48;;;;;;;6.00;4.87;;;1.30;69.20;;;;;;5006034;28;20566;-40
2021/03/06 02:02:18;;;;;;;6.57;4.70;;;1.30;69.30;;;;;;5024608;28;20492;-40
2021/03/06 02:04:45;;;;;;;9.87;6.53;;;1.30;69.40;;;;;;5027811;28;20463;-40
2021/03/06 02:07:12;;;;;;;6.77;4.57;;;1.30;69.40;;;;;;5011289;28;20498;-40
2021/03/06 02:09:39;;;;;;;9.10;5.80;;;1.20;69.40;;;;;;5028815;28;20543;-40
2021/03/06 02:12:14;;;;;;;10.73;5.67;;;1.20;69.70;;;;;;5026928;28;20894;-40
2021/03/06 02:15:05;;;;;;;6.50;5.17;;;1.20;69.70;;;;;;5018092;28;21271;-40
2021/03/06 02:17:46;;;;;;;7.80;4.70;;;1.20;69.70;;;;;;5025811;28;20555;-40
2021/03/06 02:20:37;;;;;;;7.20;4.90;;;1.20;69.70;;;;;;5026338;28;20471;-40
2021/03/06 02:23:13;;;;;;;6.90;4.80;;;1.20;69.80;;;;;;5028932;28;20559;-40
2021/03/06 02:26:19;;;;;;;7.50;4.87;;;1.10;69.80;;;;;;5026274;28;20901;-40
2021/03/06 02:29:10;;;;;;;6.57;4.70;;;1.10;69.90;;;;;;4987340;28;20549;-40
2021/03/06 02:31:41;;;;;;;9.30;5.20;;;1.10;69.90;;;;;;4985424;28;20465;-42
2021/03/06 02:34:12;;;;;;;11.93;5.17;;;1.10;69.90;;;;;;5005664;28;21054;-40
2021/03/06 02:36:45;;;;;;;8.43;5.53;;;1.00;70.20;;;;;;5026495;28;20483;-41
2021/03/06 02:39:15;;;;;;;8.37;6.83;;;1.00;70.20;;;;;;5026723;28;20543;-40
2021/03/06 02:41:43;;;;;;;7.27;4.27;;;1.10;70.30;;;;;;5010490;28;20503;-40
2021/03/06 02:44:12;;;;;;;5.47;4.67;;;1.00;70.30;;;;;;5026330;28;20498;-40
2021/03/06 02:46:39;;;;;;;7.50;5.20;;;1.10;70.30;;;;;;5023188;28;20562;-40
2021/03/06 02:49:10;;;;;;;7.13;4.70;;;1.00;70.30;;;;;;5026992;28;20486;-40
2021/03/06 02:51:41;;;;;;;7.70;4.33;;;1.00;70.20;;;;;;4990523;28;20445;-40
2021/03/06 02:54:09;;;;;;;8.50;5.87;;;1.00;70.20;;;;;;5009082;28;20465;-40
2021/03/06 02:56:37;;;;;;;7.67;5.20;;;1.00;70.20;;;;;;5026524;28;20526;-41
2021/03/06 02:59:26;;;;;;;7.40;4.60;;;1.00;70.20;;;;;;5026144;28;20491;-42
2021/03/06 03:02:25;;;;;;;6.13;4.50;;;1.00;70.20;;;;;;5027963;28;20482;-42
2021/03/06 03:05:05;;;;;;;8.00;4.63;;;0.90;70.30;;;;;;5025369;28;20455;-42
2021/03/06 03:07:43;;;;;;;11.63;5.43;;;0.90;70.40;;;;;;5024793;28;20470;-42
2021/03/06 03:10:12;;;;;;;9.87;5.57;;;0.90;70.50;;;;;;5025309;28;20536;-42
2021/03/06 03:12:46;;;;;;;8.57;5.03;;;0.80;70.50;;;;;;5024197;28;20550;-42
2021/03/06 03:15:26;;;;;;;8.30;5.90;;;0.80;70.70;;;;;;5024539;28;20956;-42
2021/03/06 03:17:54;;;;;;;6.80;4.70;;;0.80;70.70;;;;;;5027610;28;20929;-42
2021/03/06 03:20:32;;;;;;;8.97;4.70;;;0.80;70.80;;;;;;5023369;28;20539;-40
2021/03/06 03:23:23;;;;;;;11.50;5.97;;;0.80;71.10;;;;;;5039332;28;20546;-40
2021/03/06 03:26:09;;;;;;;10.07;6.17;;;0.80;71.10;;;;;;5025204;28;20897;-40
2021/03/06 03:28:37;;;;;;;9.47;5.50;;;0.80;71.10;;;;;;5026072;28;20483;-40
2021/03/06 03:31:05;;;;;;;8.83;5.33;;;0.80;71.00;;;;;;5012197;28;20511;-40
2021/03/06 03:33:34;;;;;;;6.20;4.77;;;0.80;71.00;;;;;;5023254;28;20471;-40
2021/03/06 03:36:04;;;;;;;8.53;5.00;;;0.80;71.10;;;;;;5005327;28;20467;-40
2021/03/06 03:38:32;;;;;;;6.50;4.93;;;0.70;71.00;;;;;;5023394;28;20463;-40
2021/03/06 03:41:09;;;;;;;12.27;5.50;;;0.70;71.10;;;;;;5026195;28;20465;-41
2021/03/06 03:43:36;;;;;;;8.87;5.80;;;0.70;71.10;;;;;;5004464;28;20574;-40
2021/03/06 03:46:04;;;;;;;6.83;5.47;;;0.70;71.10;;;;;;5021026;28;20919;-42
2021/03/06 03:48:30;;;;;;;8.00;5.00;;;0.70;71.10;;;;;;5008898;28;20547;-42
2021/03/06 03:50:57;;;;;;;9.17;4.80;;;0.70;71.10;;;;;;5025729;28;20469;-42
2021/03/06 03:53:23;;;;;;;9.10;5.80;;;0.70;71.10;;;;;;5026483;28;20506;-41
2021/03/06 03:55:51;;;;;;;9.37;5.57;;;0.60;71.20;;;;;;5003966;28;20996;-41
2021/03/06 03:58:17;;;;;;;7.87;5.03;;;0.60;71.30;;;;;;5020427;28;20543;-41
2021/03/06 04:00:43;;;;;;;9.13;6.20;;;0.60;71.30;;;;;;5027924;28;20490;-40
2021/03/06 04:03:13;;;;;;;7.50;5.90;;;0.60;71.40;;;;;;5026437;28;21029;-40
2021/03/06 04:05:40;;;;;;;8.20;5.43;;;0.50;71.40;;;;;;5020414;28;20525;-40
2021/03/06 04:08:06;;;;;;;11.23;5.63;;;0.50;71.40;;;;;;5021029;28;20552;-40
2021/03/06 04:10:32;;;;;;;9.63;5.67;;;0.50;71.50;;;;;;5002747;28;20475;-40
2021/03/06 04:13:02;;;;;;;10.60;5.33;;;0.50;71.80;;;;;;5021533;28;20568;-40
2021/03/06 04:15:29;;;;;;;11.33;6.63;;;0.50;71.80;;;;;;5021342;28;20511;-40
2021/03/06 04:17:55;;;;;;;10.70;5.13;;;0.50;71.80;;;;;;5023637;28;20465;-40
2021/03/06 04:20:22;;;;;;;10.10;5.97;;;0.40;71.80;;;;;;5008964;28;20451;-40
2021/03/06 04:22:52;;;;;;;7.87;5.67;;;0.40;71.80;;;;;;5023167;28;20448;-40
2021/03/06 04:25:19;;;;;;;7.47;5.70;;;0.40;72.00;;;;;;5005995;28;20461;-40
2021/03/06 04:27:45;;;;;;;7.83;5.40;;;0.40;72.00;;;;;;4993565;28;20491;-42
2021/03/06 04:30:12;;;;;;;9.03;5.83;;;0.40;72.00;;;;;;5025580;28;20558;-40
2021/03/06 04:32:39;;;;;;;6.30;4.63;;;0.40;72.00;;;;;;5008040;28;20542;-40
2021/03/06 04:35:07;;;;;;;10.90;5.83;;;0.40;72.00;;;;;;5010914;28;20455;-40
2021/03/06 04:37:34;;;;;;;8.57;5.40;;;0.40;72.00;;;;;;5033037;28;20580;-40
2021/03/06 04:40:00;;;;;;;7.60;6.00;;;0.40;72.10;;;;;;5029242;28;20489;-40
2021/03/06 04:42:27;;;;;;;7.63;4.80;;;0.30;72.10;;;;;;5007160;28;20461;-40
2021/03/06 04:44:53;;;;;;;6.63;5.13;;;0.30;72.20;;;;;;5028184;28;20575;-40
2021/03/06 04:47:20;;;;;;;10.60;5.90;;;0.30;72.20;;;;;;5027638;28;20463;-40
2021/03/06 04:49:47;;;;;;;7.60;5.00;;;0.30;72.10;;;;;;5010821;28;20463;-41
2021/03/06 04:52:17;;;;;;;6.97;5.30;;;0.30;72.10;;;;;;5012240;28;20582;-41
2021/03/06 04:54:45;;;;;;;8.87;5.40;;;0.30;72.10;;;;;;5009649;28;20493;-40
2021/03/06 04:57:13;;;;;;;11.10;6.83;;;0.30;72.10;;;;;;5028782;28;20527;-40
2021/03/06 04:59:41;;;;;;;8.23;5.53;;;0.30;72.20;;;;;;5023851;28;20467;-40
2021/03/06 05:02:11;;;;;;;7.03;5.00;;;0.20;72.20;;;;;;5030590;28;20455;-41
2021/03/06 05:04:37;;;;;;;11.93;6.07;;;0.20;72.10;;;;;;5029318;28;20467;-40
2021/03/06 05:07:08;;;;;;;8.83;6.60;;;0.20;72.20;;;;;;5029930;28;20486;-40
2021/03/06 05:09:34;;;;;;;10.63;6.80;;;0.20;72.10;;;;;;5025918;28;20490;-41
2021/03/06 05:12:04;;;;;;;10.70;7.13;;;0.20;72.10;;;;;;5010164;28;20462;-41
2021/03/06 05:14:34;;;;;;;17.70;10.80;;;0.20;72.20;;;;;;5030154;28;20443;-41
2021/03/06 05:17:02;;;;;;;29.00;13.13;;;0.10;72.20;;;;;;5026242;28;20663;-40
2021/03/06 05:19:30;;;;;;;24.90;14.83;;;0.10;72.40;;;;;;4995100;28;20464;-40
2021/03/06 05:21:56;;;;;;;39.67;19.30;;;0.10;72.40;;;;;;5008346;28;20474;-41
2021/03/06 05:24:23;;;;;;;39.77;20.10;;;0.10;72.50;;;;;;4992883;28;20530;-40
2021/03/06 05:27:01;;;;;;;14.30;9.70;;;0.10;72.60;;;;;;5028736;28;20549;-40
2021/03/06 05:29:30;;;;;;;13.93;8.10;;;0.10;72.70;;;;;;5031238;28;20459;-40
2021/03/06 05:31:57;;;;;;;11.10;6.17;;;0.10;72.60;;;;;;5025536;28;21079;-40
2021/03/06 05:34:23;;;;;;;10.43;7.10;;;0.10;72.60;;;;;;5028784;28;20507;-40
2021/03/06 05:36:51;;;;;;;11.90;7.60;;;0.10;72.60;;;;;;5008268;28;20571;-40
2021/03/06 05:39:18;;;;;;;9.90;6.00;;;0.00;72.70;;;;;;5011284;28;20535;-40
2021/03/06 05:41:45;;;;;;;9.10;5.60;;;0.00;72.70;;;;;;5026949;28;20546;-40
2021/03/06 05:44:13;;;;;;;8.27;5.83;;;0.00;72.70;;;;;;5010741;28;20501;-40
2021/03/06 05:46:43;;;;;;;12.47;8.13;;;0.00;72.70;;;;;;5011255;28;20558;-40
2021/03/06 05:49:14;;;;;;;11.47;7.90;;;0.00;72.60;;;;;;5012866;28;20537;-41
2021/03/06 05:51:41;;;;;;;11.60;7.50;;;0.00;72.70;;;;;;5043435;28;20952;-41
2021/03/06 05:54:13;;;;;;;20.43;12.60;;;0.00;72.70;;;;;;5028110;28;20475;-41
2021/03/06 05:56:42;;;;;;;21.23;13.40;;;-0.10;72.70;;;;;;5025241;28;20964;-41
2021/03/06 05:59:11;;;;;;;18.33;11.37;;;-0.10;72.70;;;;;;5011430;28;20466;-41
2021/03/06 06:01:39;;;;;;;17.83;10.43;;;-0.10;72.80;;;;;;5011327;28;20557;-41
2021/03/06 06:04:07;;;;;;;15.23;10.40;;;-0.10;72.80;;;;;;4993026;28;20839;-41
2021/03/06 06:06:38;;;;;;;13.27;9.50;;;-0.10;72.70;;;;;;5027253;28;20490;-41
2021/03/06 06:09:08;;;;;;;13.07;8.77;;;-0.10;72.70;;;;;;5029614;28;20864;-41
2021/03/06 06:11:35;;;;;;;10.97;9.13;;;-0.10;72.80;;;;;;5041326;28;20555;-41
2021/03/06 06:14:04;;;;;;;12.90;9.23;;;-0.10;72.80;;;;;;5019502;28;20499;-41
2021/03/06 06:16:36;;;;;;;9.60;7.83;;;-0.10;72.80;;;;;;5026498;28;20495;-41
2021/03/06 06:19:05;;;;;;;11.93;7.60;;;-0.10;72.90;;;;;;5030136;28;20455;-41
2021/03/06 06:21:35;;;;;;;11.60;8.73;;;-0.10;72.90;;;;;;5024287;28;20489;-41
2021/03/06 06:24:07;;;;;;;14.30;10.40;;;-0.10;72.90;;;;;;5025560;28;20550;-41
2021/03/06 06:26:33;;;;;;;12.27;9.03;;;-0.10;73.10;;;;;;5042831;28;20535;-41
2021/03/06 06:29:00;;;;;;;10.23;8.67;;;-0.10;73.10;;;;;;5008985;28;20459;-41
2021/03/06 06:31:26;;;;;;;11.83;7.97;;;-0.20;73.10;;;;;;5009817;28;20554;-41
2021/03/06 06:33:54;;;;;;;9.20;7.37;;;-0.10;73.30;;;;;;5029928;28;20513;-41
2021/03/06 06:36:30;;;;;;;12.87;8.20;;;-0.10;73.40;;;;;;5028411;28;21041;-41
2021/03/06 06:38:56;;;;;;;9.77;8.47;;;-0.10;73.50;;;;;;5024128;28;20566;-41
2021/03/06 06:41:23;;;;;;;12.40;9.80;;;-0.10;73.50;;;;;;5010639;28;20466;-41
2021/03/06 06:43:52;;;;;;;9.17;7.80;;;-0.10;73.60;;;;;;5007305;28;20514;-41
2021/03/06 06:46:31;;;;;;;10.70;7.73;;;-0.10;73.70;;;;;;5008581;28;20523;-41
2021/03/06 06:49:01;;;;;;;11.33;7.30;;;-0.10;73.90;;;;;;5028410;28;20447;-41
2021/03/06 06:51:29;;;;;;;10.77;7.43;;;0.00;73.90;;;;;;5025079;28;20467;-41
2021/03/06 06:54:17;;;;;;;14.73;8.50;;;0.00;74.00;;;;;;5029199;28;20890;-41
2021/03/06 06:56:43;;;;;;;11.77;8.50;;;0.00;74.20;;;;;;5012218;28;20518;-41
2021/03/06 06:59:10;;;;;;;11.50;8.77;;;0.00;74.30;;;;;;5010212;28;20865;-41
2021/03/06 07:01:37;;;;;;;14.30;7.87;;;0.10;74.30;;;;;;5010682;28;20448;-41
2021/03/06 07:04:07;;;;;;;13.03;7.10;;;0.10;74.40;;;;;;5009238;28;20953;-42
2021/03/06 07:06:34;;;;;;;12.67;6.57;;;0.10;74.50;;;;;;5039587;28;20475;-41
2021/03/06 07:09:07;;;;;;;8.63;6.60;;;0.10;74.50;;;;;;5010575;28;20521;-41
2021/03/06 07:11:34;;;;;;;11.40;6.10;;;0.20;74.70;;;;;;5028716;28;20731;-41
2021/03/06 07:14:01;;;;;;;6.90;5.13;;;0.20;74.70;;;;;;5026125;28;20495;-41
2021/03/06 07:16:55;;;;;;;7.73;5.73;;;0.20;74.80;;;;;;5009934;28;20606;-41
2021/03/06 07:19:27;;;;;;;7.83;5.77;;;0.30;74.90;;;;;;5042722;28;20464;-41
2021/03/06 07:21:53;;;;;;;8.93;5.80;;;0.30;75.00;;;;;;5027880;28;20539;-41
2021/03/06 07:24:20;;;;;;;9.17;6.30;;;0.30;75.10;;;;;;5010868;28;20987;-41
2021/03/06 07:26:51;;;;;;;7.83;6.13;;;0.40;75.10;;;;;;5011258;28;20558;-41
2021/03/06 07:29:21;;;;;;;13.70;6.50;;;0.40;75.20;;;;;;5025677;28;20452;-41
2021/03/06 07:31:50;;;;;;;9.43;7.07;;;0.50;75.30;;;;;;5024335;28;20467;-41
2021/03/06 07:34:19;;;;;;;8.73;6.47;;;0.60;75.30;;;;;;5007503;28;20537;-41
2021/03/06 07:36:47;;;;;;;6.43;5.53;;;0.60;75.30;;;;;;5007161;28;20997;-41
2021/03/06 07:39:15;;;;;;;9.33;6.00;;;0.60;75.40;;;;;;5009907;28;20463;-41
2021/03/06 07:41:54;;;;;;;11.77;6.50;;;0.70;75.40;;;;;;5040689;28;20512;-42
2021/03/06 07:44:23;;;;;;;8.97;5.67;;;0.80;75.30;;;;;;5022420;28;20487;-41
2021/03/06 07:46:51;;;;;;;7.20;5.37;;;0.90;75.10;;;;;;5021913;28;20524;-42
2021/03/06 07:49:22;;;;;;;7.13;4.80;;;1.00;74.70;;;;;;5039311;28;20452;-41
2021/03/06 07:51:49;;;;;;;7.90;4.50;;;1.20;74.10;;;;;;5009246;28;20451;-41
2021/03/06 07:54:16;;;;;;;6.13;4.87;;;1.30;73.20;;;;;;5023625;28;20459;-41
2021/03/06 07:56:42;;;;;;;10.20;5.93;;;1.40;72.10;;;;;;5003536;28;20495;-41
2021/03/06 07:59:46;;;;;;;10.07;7.23;;;1.50;71.30;;;;;;5025887;28;20967;-41
2021/03/06 08:02:32;;;;;;;8.03;7.23;;;1.60;71.10;;;;;;5029139;28;20485;-41
2021/03/06 08:05:21;;;;;;;10.63;7.20;;;1.80;70.80;;;;;;5041907;28;21010;-41
2021/03/06 08:07:50;;;;;;;5.97;4.83;;;2.00;70.30;;;;;;5035874;28;20538;-41
2021/03/06 08:10:18;;;;;;;11.00;5.80;;;2.20;70.00;;;;;;5006346;28;20455;-41
2021/03/06 08:12:44;;;;;;;7.93;4.47;;;2.40;68.90;;;;;;5026035;28;20447;-41
2021/03/06 08:15:27;;;;;;;7.20;4.30;;;2.70;66.80;;;;;;5026421;28;20522;-41
2021/03/06 08:18:02;;;;;;;5.90;4.03;;;2.90;65.30;;;;;;5023931;28;20456;-42
2021/03/06 08:20:31;;;;;;;8.07;4.50;;;3.10;65.00;;;;;;5020254;28;20456;-42
2021/03/06 08:23:22;;;;;;;6.90;4.63;;;3.30;64.20;;;;;;5022076;28;20455;-42
2021/03/06 08:26:08;;;;;;;5.47;4.27;;;3.50;63.80;;;;;;5021157;28;20487;-42
2021/03/06 08:28:39;;;;;;;4.80;4.30;;;3.70;63.30;;;;;;5026361;28;20530;-42
2021/03/06 08:31:35;;;;;;;4.40;4.00;;;4.00;62.20;;;;;;5024160;28;21113;-42
2021/03/06 08:34:25;;;;;;;7.10;4.70;;;4.20;61.10;;;;;;5009001;28;20451;-42
2021/03/06 08:37:12;;;;;;;5.70;4.50;;;4.50;59.80;;;;;;5004935;28;20518;-42
2021/03/06 08:39:45;;;;;;;6.93;4.83;;;4.70;59.40;;;;;;5035619;28;20534;-42
2021/03/06 08:42:13;;;;;;;8.23;5.20;;;4.90;58.70;;;;;;5025088;28;21229;-42
2021/03/06 08:44:40;;;;;;;7.00;4.90;;;5.10;57.40;;;;;;5023087;28;20483;-42
2021/03/06 08:47:37;;;;;;;7.20;5.13;;;5.20;57.10;;;;;;5024749;28;20538;-42
2021/03/06 08:50:16;;;;;;;7.87;5.53;;;5.40;56.40;;;;;;5023773;28;20481;-42
2021/03/06 08:53:15;;;;;;;6.63;6.00;;;5.50;56.60;;;;;;5009212;28;20463;-42
2021/03/06 08:55:45;;;;;;;10.33;6.17;;;5.70;56.50;;;;;;5020090;28;20613;-41
2021/03/06 08:58:14;;;;;;;7.70;5.37;;;5.80;56.80;;;;;;4992870;28;20439;-42
2021/03/06 09:00:51;;;;;;;12.97;6.57;;;5.90;56.60;;;;;;5006622;28;20567;-42
2021/03/06 09:03:25;;;;;;;7.13;6.00;;;6.00;55.60;;;;;;5022088;28;20510;-42
2021/03/06 09:05:54;;;;;;;8.90;7.20;;;6.10;55.00;;;;;;5012215;28;20458;-42
2021/03/06 09:08:26;;;;;;;9.40;5.87;;;6.20;54.70;;;;;;5025411;28;20464;-42
2021/03/06 09:10:56;;;;;;;7.00;6.07;;;6.20;54.80;;;;;;5006649;28;20514;-42
2021/03/06 09:13:23;;;;;;;6.33;5.60;;;6.30;54.40;;;;;;5025470;28;20713;-42
2021/03/06 09:16:00;;;;;;;10.00;5.37;;;6.30;54.20;;;;;;5024978;28;20487;-42
2021/03/06 09:18:31;;;;;;;10.13;5.43;;;6.30;54.10;;;;;;5007359;28;20485;-42
2021/03/06 09:21:18;;;;;;;8.73;5.90;;;6.30;54.30;;;;;;5024977;28;21053;-42
2021/03/06 09:23:45;;;;;;;8.83;6.50;;;6.30;54.40;;;;;;5026755;28;20487;-42
2021/03/06 09:26:16;;;;;;;8.20;6.27;;;6.30;54.90;;;;;;5027845;28;20546;-42
2021/03/06 09:28:44;;;;;;;8.63;6.60;;;6.30;55.10;;;;;;5024031;28;20505;-42
2021/03/06 09:31:20;;;;;;;9.03;5.60;;;6.40;54.40;;;;;;5026385;28;20486;-42
2021/03/06 09:33:47;;;;;;;7.47;6.07;;;6.40;53.40;;;;;;5029396;28;20463;-42
2021/03/06 09:36:17;;;;;;;7.90;6.07;;;6.40;53.30;;;;;;5028347;28;20523;-42
2021/03/06 09:38:52;;;;;;;8.17;5.73;;;6.50;53.20;;;;;;5009556;28;20550;-42
2021/03/06 09:41:29;;;;;;;7.20;5.30;;;6.60;52.20;;;;;;5008656;28;20535;-41
2021/03/06 09:44:00;;;;;;;7.77;4.77;;;6.60;52.50;;;;;;5021925;28;20570;-41
2021/03/06 09:46:32;;;;;;;9.37;6.83;;;6.70;51.90;;;;;;5026748;28;20517;-41
2021/03/06 09:49:07;;;;;;;7.27;5.20;;;6.80;51.80;;;;;;5040469;28;20471;-41
2021/03/06 09:51:42;;;;;;;6.43;4.60;;;6.90;52.10;;;;;;5027710;28;20503;-41
2021/03/06 09:54:11;;;;;;;8.13;5.20;;;7.00;51.50;;;;;;5025866;28;20483;-41
2021/03/06 09:56:51;;;;;;;7.40;4.93;;;7.20;50.90;;;;;;5025508;28;20506;-41
2021/03/06 09:59:18;;;;;;;7.90;6.20;;;7.50;50.90;;;;;;5028603;28;20631;-41
2021/03/06 10:01:45;;;;;;;8.70;5.37;;;7.70;50.70;;;;;;5028115;28;20458;-41
2021/03/06 10:04:21;;;;;;;5.70;4.80;;;7.90;49.30;;;;;;5027521;28;20448;-41
2021/03/06 10:06:53;;;;;;;5.70;5.10;;;8.10;48.00;;;;;;5011144;28;21052;-41
2021/03/06 10:09:23;;;;;;;7.97;5.07;;;8.20;47.60;;;;;;5023303;28;20578;-41
2021/03/06 10:12:02;;;;;;;5.33;4.40;;;8.40;47.00;;;;;;5025270;28;20459;-41
2021/03/06 10:14:29;;;;;;;5.00;4.10;;;8.50;46.60;;;;;;5007092;28;20463;-41
2021/03/06 10:16:58;;;;;;;9.47;4.67;;;8.70;46.40;;;;;;5024455;28;20909;-41
2021/03/06 10:19:30;;;;;;;6.07;5.03;;;8.90;46.60;;;;;;5007807;28;20538;-41
2021/03/06 10:22:03;;;;;;;8.40;4.77;;;9.10;47.10;;;;;;5026139;28;20495;-41
2021/03/06 10:24:31;;;;;;;7.17;5.10;;;9.40;46.30;;;;;;5026722;28;20534;-41
2021/03/06 10:27:02;;;;;;;6.30;4.60;;;9.70;45.10;;;;;;5008129;28;20463;-41
2021/03/06 10:29:30;;;;;;;6.33;4.50;;;9.90;45.20;;;;;;5026026;28;20465;-41
2021/03/06 10:32:07;;;;;;;13.07;5.47;;;10.20;44.80;;;;;;5011213;28;20468;-42
2021/03/06 10:34:58;;;;;;;6.97;4.87;;;10.40;44.60;;;;;;5012268;28;20538;-42
2021/03/06 10:37:25;;;;;;;8.73;4.80;;;10.70;43.90;;;;;;5024772;28;20492;-42
2021/03/06 10:40:01;;;;;;;4.20;3.33;;;10.90;42.80;;;;;;5008670;28;20732;-41
2021/03/06 10:42:42;;;;;;;4.57;3.77;;;11.20;41.30;;;;;;5010668;28;20456;-41
2021/03/06 10:45:23;;;;;;;6.77;3.97;;;11.40;39.70;;;;;;5006806;28;20577;-42
2021/03/06 10:47:51;;;;;;;3.57;3.27;;;11.60;39.40;;;;;;5024485;28;20497;-41
2021/03/06 10:50:33;;;;;;;3.60;2.90;;;11.70;38.80;;;;;;5022836;28;20473;-41
2021/03/06 10:53:19;;;;;;;3.23;2.77;;;11.80;37.50;;;;;;5007265;28;20495;-41
2021/03/06 10:55:46;;;;;;;3.20;2.90;;;11.80;37.80;;;;;;4995342;28;20487;-41
2021/03/06 10:58:13;;;;;;;4.07;2.73;;;11.80;37.60;;;;;;5005157;28;20467;-41
2021/03/06 11:00:45;;;;;;;3.80;3.03;;;11.70;38.80;;;;;;5027896;28;20475;-41
2021/03/06 11:03:15;;;;;;;5.07;3.10;;;11.60;38.50;;;;;;5027277;28;20444;-42
2021/03/06 11:05:42;;;;;;;4.27;3.20;;;11.50;38.80;;;;;;5007726;28;20492;-41
2021/03/06 11:08:18;;;;;;;3.70;2.70;;;11.50;39.40;;;;;;5008525;28;21006;-40
2021/03/06 11:10:47;;;;;;;4.13;2.73;;;11.50;39.00;;;;;;5024476;28;21038;-40
2021/03/06 11:13:14;;;;;;;3.73;2.80;;;11.40;38.10;;;;;;5024124;28;20468;-40
2021/03/06 11:15:49;;;;;;;3.40;2.67;;;11.40;37.40;;;;;;5024196;28;21043;-40
2021/03/06 11:18:15;;;;;;;3.23;2.97;;;11.50;37.30;;;;;;5026834;28;20997;-40
2021/03/06 11:20:46;;;;;;;4.17;2.83;;;11.50;36.30;;;;;;5028905;28;20463;-40
2021/03/06 11:23:17;;;;;;;2.80;2.20;;;11.50;36.30;;;;;;5027351;28;21157;-40
2021/03/06 11:25:43;;;;;;;3.20;2.90;;;11.50;36.80;;;;;;5043677;28;20553;-40
2021/03/06 11:28:13;;;;;;;4.47;3.00;;;11.40;36.60;;;;;;5024226;28;20517;-40
2021/03/06 11:30:45;;;;;;;6.03;2.80;;;11.50;37.80;;;;;;5025996;28;20554;-40
2021/03/06 11:33:18;;;;;;;4.53;3.20;;;11.40;38.20;;;;;;4994556;28;21063;-42
2021/03/06 11:35:46;;;;;;;3.10;2.67;;;11.50;36.70;;;;;;5026955;28;20451;-40
2021/03/06 11:38:14;;;;;;;3.40;2.77;;;11.50;36.40;;;;;;5027729;28;20490;-40
2021/03/06 11:40:43;;;;;;;5.13;2.83;;;11.50;36.30;;;;;;5023409;28;20488;-40
2021/03/06 11:43:15;;;;;;;3.20;2.53;;;11.40;37.10;;;;;;5027272;28;20944;-40
2021/03/06 11:45:42;;;;;;;4.43;3.30;;;11.40;37.70;;;;;;5021449;28;20487;-40
2021/03/06 11:48:09;;;;;;;3.47;2.50;;;11.40;36.50;;;;;;5027420;28;20514;-40
2021/03/06 11:50:42;;;;;;;3.30;3.00;;;11.40;34.40;;;;;;5005380;28;20464;-40
2021/03/06 11:53:08;;;;;;;5.27;3.50;;;11.40;34.50;;;;;;5021024;28;20524;-40
2021/03/06 11:55:35;;;;;;;4.27;2.60;;;11.40;35.30;;;;;;5021393;28;20562;-40
2021/03/06 11:58:03;;;;;;;4.03;3.17;;;11.30;35.80;;;;;;5008134;28;20579;-40
2021/03/06 12:00:31;;;;;;;3.57;2.83;;;11.20;36.30;;;;;;5008486;28;20484;-40
2021/03/06 12:02:58;;;;;;;7.10;2.73;;;11.00;36.90;;;;;;5021570;28;20841;-40
2021/03/06 12:05:25;;;;;;;3.17;2.87;;;10.80;35.50;;;;;;5002643;28;20476;-40
2021/03/06 12:07:52;;;;;;;5.17;2.30;;;10.80;36.10;;;;;;5010693;28;20542;-40
2021/03/06 12:10:21;;;;;;;2.53;2.20;;;10.70;36.90;;;;;;5024342;28;20463;-40
2021/03/06 12:12:51;;;;;;;3.27;2.97;;;10.70;35.90;;;;;;5026549;28;20526;-40
2021/03/06 12:15:25;;;;;;;3.10;2.80;;;10.60;37.20;;;;;;5023275;28;20543;-40
2021/03/06 12:17:53;;;;;;;3.90;2.50;;;10.60;37.10;;;;;;5023370;28;20483;-40
2021/03/06 12:20:19;;;;;;;2.43;2.23;;;10.60;37.70;;;;;;5026090;28;20514;-40
2021/03/06 12:22:49;;;;;;;3.60;2.40;;;10.50;36.60;;;;;;5003849;28;20460;-40
2021/03/06 12:25:16;;;;;;;3.83;2.37;;;10.40;36.10;;;;;;5008574;28;20456;-40
2021/03/06 12:27:42;;;;;;;3.13;2.27;;;10.40;35.90;;;;;;5005464;28;20451;-40
2021/03/06 12:30:11;;;;;;;3.00;2.10;;;10.40;36.70;;;;;;5003555;28;20535;-40
2021/03/06 12:32:38;;;;;;;3.13;2.07;;;10.50;36.40;;;;;;5019610;28;20464;-41
2021/03/06 12:35:07;;;;;;;3.83;2.50;;;10.40;35.80;;;;;;5020075;28;20940;-40
2021/03/06 12:37:38;;;;;;;2.30;2.03;;;10.40;36.70;;;;;;5017173;28;20505;-40
2021/03/06 12:40:06;;;;;;;4.70;2.90;;;10.40;36.60;;;;;;5036220;28;20459;-40
2021/03/06 12:42:34;;;;;;;2.43;2.10;;;10.40;35.70;;;;;;4989311;28;20491;-40
2021/03/06 12:45:00;;;;;;;2.70;2.20;;;10.40;34.70;;;;;;5021706;28;20483;-40
2021/03/06 12:47:34;;;;;;;2.63;2.30;;;10.50;34.10;;;;;;5007470;28;20527;-40
2021/03/06 12:50:00;;;;;;;2.57;2.20;;;10.60;33.70;;;;;;4992580;28;20455;-40
2021/03/06 12:52:27;;;;;;;2.37;2.17;;;10.60;34.00;;;;;;5028557;28;20542;-40
2021/03/06 12:54:56;;;;;;;3.47;2.73;;;10.60;35.00;;;;;;5026568;28;20491;-40
2021/03/06 12:57:22;;;;;;;4.53;2.43;;;10.60;35.10;;;;;;5030188;28;20998;-40
2021/03/06 12:59:58;;;;;;;3.00;2.70;;;10.60;36.40;;;;;;5028979;28;21008;-41
2021/03/06 13:02:24;;;;;;;4.20;3.13;;;10.70;36.10;;;;;;5009861;28;21002;-41
2021/03/06 13:04:51;;;;;;;4.20;3.90;;;10.80;36.50;;;;;;5011055;28;20455;-40
2021/03/06 13:07:17;;;;;;;3.70;2.60;;;10.80;36.40;;;;;;4994541;28;20497;-40
2021/03/06 13:09:43;;;;;;;4.20;3.80;;;10.90;37.10;;;;;;5030886;28;20534;-40